Time;durP1;ratioP1;P1;durP2;ratioP2;P2;SDS_P1;SDS_P2;PMS_P1;PMS_P2;Temp;Humidity;BMP_temperature;BMP_pressure;BME280_temperature;BME280_humidity;BME280_pressure;Samples;Min_cycle;Max_cycle;Signal;HPM_P1;HPM_P2
2021/05/14 00:02:09;;;;;;;0.65;0.63;;;10.00;77.60;;;;;;5074127;28;20024;-70
2021/05/14 00:04:34;;;;;;;0.38;0.38;;;10.00;77.60;;;;;;5078267;28;20029;-70
2021/05/14 00:07:00;;;;;;;0.60;0.60;;;9.90;77.60;;;;;;5072556;28;20025;-70
2021/05/14 00:09:25;;;;;;;0.60;0.60;;;9.90;77.70;;;;;;5071981;28;20025;-69
2021/05/14 00:11:51;;;;;;;1.05;0.60;;;9.90;77.70;;;;;;5071839;28;20364;-70
2021/05/14 00:14:17;;;;;;;0.60;0.60;;;9.90;77.80;;;;;;5052757;28;20055;-72
2021/05/14 00:16:43;;;;;;;1.23;0.65;;;9.90;77.80;;;;;;5066965;28;20020;-71
2021/05/14 00:19:08;;;;;;;0.50;0.50;;;10.00;77.90;;;;;;5066818;28;20179;-70
2021/05/14 00:21:34;;;;;;;0.70;0.70;;;10.00;78.00;;;;;;5070311;28;20070;-70
2021/05/14 00:24:01;;;;;;;0.50;0.50;;;10.00;77.90;;;;;;5067741;28;20033;-70
2021/05/14 00:26:27;;;;;;;0.60;0.60;;;9.90;78.00;;;;;;5076235;28;20017;-70
2021/05/14 00:28:52;;;;;;;1.13;0.68;;;9.90;78.10;;;;;;5071947;28;20389;-70
2021/05/14 00:31:18;;;;;;;0.70;0.70;;;9.90;78.10;;;;;;5069612;28;20032;-69
2021/05/14 00:33:44;;;;;;;0.60;0.60;;;9.90;78.10;;;;;;5050287;28;20119;-69
2021/05/14 00:36:10;;;;;;;1.00;0.63;;;9.80;78.20;;;;;;5071188;28;20036;-72
2021/05/14 00:38:36;;;;;;;0.65;0.65;;;9.80;78.20;;;;;;5070204;28;20028;-71
2021/05/14 00:41:03;;;;;;;0.70;0.68;;;9.80;78.30;;;;;;5054150;28;20529;-71
2021/05/14 00:43:28;;;;;;;0.63;0.57;;;9.80;78.30;;;;;;5071861;28;20032;-70
2021/05/14 00:45:54;;;;;;;1.15;0.80;;;9.80;78.40;;;;;;5070566;28;20028;-70
2021/05/14 00:48:20;;;;;;;0.80;0.80;;;9.80;78.50;;;;;;5071538;28;20392;-72
2021/05/14 00:50:45;;;;;;;1.15;0.70;;;9.80;78.60;;;;;;5068759;28;20036;-69
2021/05/14 00:53:12;;;;;;;0.70;0.70;;;9.80;78.70;;;;;;5071605;28;20070;-70
2021/05/14 00:55:38;;;;;;;0.70;0.70;;;9.80;78.80;;;;;;5052661;28;20192;-69
2021/05/14 00:58:03;;;;;;;0.90;0.90;;;9.80;78.70;;;;;;5071770;28;20103;-70
2021/05/14 01:00:29;;;;;;;0.80;0.70;;;9.80;78.90;;;;;;5067221;28;20099;-70
2021/05/14 01:02:55;;;;;;;3.45;0.98;;;9.80;79.00;;;;;;5067693;28;20024;-71
2021/05/14 01:05:22;;;;;;;2.08;0.85;;;9.80;79.10;;;;;;5070725;28;20492;-72
2021/05/14 01:07:50;;;;;;;0.90;0.90;;;9.80;79.10;;;;;;5070008;28;20366;-70
2021/05/14 01:10:17;;;;;;;5.40;1.02;;;9.80;79.20;;;;;;5071333;28;20020;-70
2021/05/14 01:12:42;;;;;;;0.77;0.77;;;9.80;79.40;;;;;;5070542;28;20426;-73
2021/05/14 01:15:08;;;;;;;1.30;0.73;;;9.80;79.40;;;;;;5062116;28;20108;-71
2021/05/14 01:17:34;;;;;;;0.95;0.90;;;9.90;79.50;;;;;;5070714;28;20488;-70
2021/05/14 01:20:00;;;;;;;1.00;0.90;;;9.90;79.40;;;;;;5069793;28;20028;-70
2021/05/14 01:22:27;;;;;;;1.15;0.90;;;9.90;79.40;;;;;;5069646;28;20017;-70
2021/05/14 01:24:53;;;;;;;2.70;1.00;;;9.80;79.50;;;;;;5070259;28;20100;-73
2021/05/14 01:27:19;;;;;;;1.17;0.90;;;9.80;79.50;;;;;;5068242;28;20041;-70
2021/05/14 01:29:45;;;;;;;1.55;1.00;;;9.80;79.60;;;;;;5071176;28;20529;-70
2021/05/14 01:32:10;;;;;;;2.20;0.93;;;9.80;79.50;;;;;;5084064;28;20020;-69
2021/05/14 01:34:36;;;;;;;1.38;1.23;;;9.80;79.70;;;;;;5069547;28;20138;-70
2021/05/14 01:37:02;;;;;;;1.63;1.02;;;9.80;79.70;;;;;;5070629;28;20070;-70
2021/05/14 01:39:27;;;;;;;1.30;0.80;;;9.70;79.60;;;;;;5070936;28;20036;-72
2021/05/14 01:41:54;;;;;;;1.13;1.00;;;9.70;79.70;;;;;;5070956;28;20031;-70
2021/05/14 01:44:20;;;;;;;1.17;1.08;;;9.70;79.80;;;;;;5067699;28;20028;-73
2021/05/14 01:46:46;;;;;;;1.75;1.15;;;9.70;79.70;;;;;;5069245;28;20024;-72
2021/05/14 01:49:11;;;;;;;1.30;1.20;;;9.70;79.80;;;;;;5069147;28;20086;-70
2021/05/14 01:51:37;;;;;;;1.42;1.30;;;9.60;80.40;;;;;;5069002;28;20480;-70
2021/05/14 01:54:03;;;;;;;1.52;1.20;;;9.60;79.90;;;;;;5069061;28;20031;-71
2021/05/14 01:56:29;;;;;;;1.20;1.10;;;9.60;80.10;;;;;;5070782;28;20063;-69
2021/05/14 01:58:55;;;;;;;1.33;1.10;;;9.60;80.10;;;;;;5070200;28;20032;-70
2021/05/14 02:01:21;;;;;;;2.38;1.17;;;9.60;80.10;;;;;;5069417;28;20025;-71
2021/05/14 02:03:47;;;;;;;1.88;0.98;;;9.50;80.00;;;;;;5068034;28;20013;-70
2021/05/14 02:06:13;;;;;;;1.50;1.40;;;9.50;80.00;;;;;;5069799;28;20024;-70
2021/05/14 02:08:39;;;;;;;1.10;1.00;;;9.50;80.10;;;;;;5067620;28;20036;-71
2021/05/14 02:11:09;;;;;;;1.48;1.38;;;9.40;80.10;;;;;;5066263;28;20024;-73
2021/05/14 02:13:36;;;;;;;1.25;1.20;;;9.40;80.10;;;;;;5061728;28;20418;-73
2021/05/14 02:16:01;;;;;;;1.40;1.30;;;9.30;80.20;;;;;;5073094;28;20043;-70
2021/05/14 02:18:27;;;;;;;3.17;1.67;;;9.30;80.30;;;;;;5073366;28;20032;-70
2021/05/14 02:20:52;;;;;;;1.48;1.38;;;9.30;80.40;;;;;;5069657;28;20025;-69
2021/05/14 02:23:18;;;;;;;1.20;1.10;;;9.30;80.40;;;;;;5069223;28;20106;-70
2021/05/14 02:25:43;;;;;;;2.40;1.35;;;9.20;80.40;;;;;;5069314;28;20494;-69
2021/05/14 02:28:09;;;;;;;2.53;1.20;;;9.20;80.40;;;;;;5068403;28;20035;-71
2021/05/14 02:30:35;;;;;;;2.35;1.15;;;9.20;80.50;;;;;;5068294;28;20119;-69
2021/05/14 02:33:00;;;;;;;1.30;1.20;;;9.20;80.60;;;;;;5076246;28;20038;-69
2021/05/14 02:35:27;;;;;;;1.30;1.20;;;9.20;80.70;;;;;;5069183;28;20028;-70
2021/05/14 02:37:53;;;;;;;2.15;1.40;;;9.30;80.70;;;;;;5051706;28;20029;-69
2021/05/14 02:40:19;;;;;;;1.42;1.23;;;9.20;80.60;;;;;;5049688;28;20016;-70
2021/05/14 02:42:44;;;;;;;1.48;1.38;;;9.20;80.60;;;;;;5071887;28;20466;-70
2021/05/14 02:45:10;;;;;;;1.58;1.20;;;9.20;80.50;;;;;;5067141;28;20036;-70
2021/05/14 02:47:36;;;;;;;2.13;1.35;;;9.10;80.50;;;;;;5060037;28;20032;-69
2021/05/14 02:50:04;;;;;;;2.13;1.33;;;9.10;80.60;;;;;;5070104;28;20042;-71
2021/05/14 02:52:30;;;;;;;2.15;1.30;;;9.10;80.70;;;;;;5069333;28;20553;-70
2021/05/14 02:54:55;;;;;;;1.58;1.48;;;9.10;80.80;;;;;;5069072;28;20108;-73
2021/05/14 02:57:22;;;;;;;1.77;1.30;;;9.10;80.80;;;;;;5050950;28;20024;-71
2021/05/14 02:59:47;;;;;;;3.58;1.48;;;9.10;80.80;;;;;;5050146;28;20651;-70
2021/05/14 03:02:13;;;;;;;1.73;1.00;;;9.10;80.80;;;;;;5078948;28;20016;-69
2021/05/14 03:04:38;;;;;;;2.55;1.08;;;9.10;80.80;;;;;;5067125;28;20040;-70
2021/05/14 03:07:04;;;;;;;2.28;1.40;;;9.20;80.90;;;;;;5069110;28;20108;-70
2021/05/14 03:09:30;;;;;;;3.08;1.20;;;9.20;80.90;;;;;;5067259;28;20035;-70
2021/05/14 03:11:55;;;;;;;1.20;1.20;;;9.20;80.80;;;;;;5068735;28;20033;-70
2021/05/14 03:14:21;;;;;;;1.13;1.02;;;9.20;80.70;;;;;;5068699;28;20040;-71
2021/05/14 03:16:47;;;;;;;1.10;1.10;;;9.10;80.70;;;;;;5068599;28;20425;-70
2021/05/14 03:19:12;;;;;;;1.15;1.10;;;9.10;80.70;;;;;;5066406;28;20028;-73
2021/05/14 03:21:38;;;;;;;1.98;1.42;;;9.10;80.80;;;;;;5069183;28;20040;-69
2021/05/14 03:24:04;;;;;;;1.67;1.30;;;9.10;80.70;;;;;;5058034;28;20068;-70
2021/05/14 03:26:29;;;;;;;1.50;1.40;;;9.10;80.60;;;;;;5063518;28;20082;-70
2021/05/14 03:28:55;;;;;;;1.48;1.33;;;9.00;80.50;;;;;;5069235;28;20020;-70
2021/05/14 03:31:21;;;;;;;1.40;1.23;;;9.00;80.40;;;;;;5062511;22;21743;-71
2021/05/14 03:33:46;;;;;;;3.20;1.15;;;8.90;80.50;;;;;;5040196;28;20036;-70
2021/05/14 03:36:13;;;;;;;2.88;1.30;;;8.80;80.70;;;;;;5036830;28;20044;-69
2021/05/14 03:38:39;;;;;;;2.13;1.70;;;8.80;80.80;;;;;;5049805;28;20519;-69
2021/05/14 03:41:18;;;;;;;1.48;1.38;;;8.80;80.80;;;;;;5052496;28;20033;-70
2021/05/14 03:43:45;;;;;;;2.25;1.30;;;8.80;80.80;;;;;;5052616;28;20025;-69
2021/05/14 03:46:11;;;;;;;1.27;1.27;;;8.70;80.80;;;;;;5032333;28;20086;-68
2021/05/14 03:48:36;;;;;;;1.17;1.17;;;8.70;80.80;;;;;;5053240;28;20471;-69
2021/05/14 03:51:02;;;;;;;1.17;1.17;;;8.70;81.00;;;;;;5050786;28;20053;-69
2021/05/14 03:53:28;;;;;;;1.13;1.10;;;8.70;81.00;;;;;;5052483;28;20156;-68
2021/05/14 03:55:53;;;;;;;1.45;1.35;;;8.70;81.10;;;;;;5051741;28;20037;-69
2021/05/14 03:58:19;;;;;;;2.03;1.40;;;8.70;81.30;;;;;;5033634;28;20041;-69
2021/05/14 04:00:45;;;;;;;1.98;1.27;;;8.70;81.30;;;;;;5049674;28;20033;-69
2021/05/14 04:03:14;;;;;;;1.30;1.20;;;8.70;81.30;;;;;;5035122;28;20074;-69
2021/05/14 04:05:40;;;;;;;1.33;1.05;;;8.70;81.30;;;;;;5037841;28;20509;-69
2021/05/14 04:08:07;;;;;;;1.20;1.20;;;8.70;81.30;;;;;;5037707;28;20036;-68
2021/05/14 04:16:04;;;;;;;2.17;1.40;;;8.90;81.70;;;;;;5061290;28;20078;-69
2021/05/14 04:18:30;;;;;;;1.38;1.27;;;8.90;82.00;;;;;;5050217;28;20033;-70
2021/05/14 04:20:55;;;;;;;1.38;1.27;;;9.00;81.50;;;;;;5034350;28;20025;-69
2021/05/14 04:23:21;;;;;;;1.63;1.00;;;9.00;81.50;;;;;;5034063;28;20051;-69
2021/05/14 04:25:47;;;;;;;2.20;1.35;;;9.00;81.60;;;;;;5050211;28;20100;-69
2021/05/14 04:28:13;;;;;;;1.27;1.17;;;9.00;81.50;;;;;;5037569;28;20443;-69
2021/05/14 04:30:39;;;;;;;2.30;1.20;;;9.10;81.50;;;;;;5050411;28;20154;-69
2021/05/14 04:33:05;;;;;;;1.10;1.10;;;9.10;81.50;;;;;;5052680;28;20380;-69
2021/05/14 04:35:32;;;;;;;2.00;1.35;;;9.10;81.30;;;;;;5051104;28;20039;-69
2021/05/14 04:37:59;;;;;;;1.00;1.00;;;9.10;81.30;;;;;;5052094;28;20044;-70
2021/05/14 04:40:24;;;;;;;2.03;1.33;;;9.10;81.30;;;;;;5031811;28;20037;-69
2021/05/14 04:42:50;;;;;;;1.60;1.30;;;9.20;81.30;;;;;;5051228;28;20436;-70
2021/05/14 04:45:16;;;;;;;4.38;1.20;;;9.20;81.30;;;;;;5050908;28;20040;-70
2021/05/14 04:47:42;;;;;;;1.33;1.23;;;9.10;81.20;;;;;;5052065;28;20040;-70
2021/05/14 04:50:08;;;;;;;5.38;1.23;;;9.10;81.30;;;;;;5049560;28;20029;-69
2021/05/14 04:52:35;;;;;;;1.10;1.10;;;9.20;81.40;;;;;;5051445;28;20025;-69
2021/05/14 04:55:01;;;;;;;2.20;1.13;;;9.20;81.30;;;;;;5051031;28;20036;-70
2021/05/14 04:57:27;;;;;;;3.17;1.30;;;9.10;81.30;;;;;;5052355;28;20512;-68
2021/05/14 04:59:53;;;;;;;2.15;1.30;;;9.10;81.30;;;;;;5051120;28;20039;-70
2021/05/14 05:02:18;;;;;;;4.63;1.20;;;9.10;81.30;;;;;;5051476;28;20021;-70
2021/05/14 05:04:44;;;;;;;1.92;1.35;;;9.10;81.30;;;;;;5050850;28;20500;-69
2021/05/14 05:07:10;;;;;;;2.17;1.20;;;9.10;81.50;;;;;;5043958;28;20032;-69
2021/05/14 05:09:36;;;;;;;5.03;1.20;;;9.10;81.50;;;;;;5034080;28;20021;-70
2021/05/14 05:12:02;;;;;;;2.97;1.00;;;9.20;81.60;;;;;;5032848;28;20615;-70
2021/05/14 05:14:28;;;;;;;2.08;1.13;;;9.20;81.80;;;;;;5031637;28;20028;-70
2021/05/14 05:16:54;;;;;;;1.05;0.95;;;9.20;81.80;;;;;;5033176;28;20037;-69
2021/05/14 05:19:19;;;;;;;2.10;1.20;;;9.30;81.80;;;;;;5050751;28;20037;-69
2021/05/14 05:21:45;;;;;;;2.30;0.90;;;9.30;81.80;;;;;;5033755;28;20462;-70
2021/05/14 05:24:11;;;;;;;2.38;0.88;;;9.30;81.80;;;;;;5050738;28;20079;-69
2021/05/14 05:26:36;;;;;;;2.92;1.73;;;9.40;81.70;;;;;;5045764;28;20032;-69
2021/05/14 05:29:03;;;;;;;1.40;1.00;;;9.40;81.60;;;;;;5050711;28;20035;-70
2021/05/14 05:31:28;;;;;;;0.80;0.80;;;9.50;81.70;;;;;;5046834;28;20067;-69
2021/05/14 05:33:54;;;;;;;2.10;0.95;;;9.50;81.50;;;;;;5050340;28;20733;-70
2021/05/14 05:36:19;;;;;;;2.40;1.20;;;9.50;81.40;;;;;;5033472;28;20035;-70
2021/05/14 05:38:46;;;;;;;1.17;1.00;;;9.50;81.40;;;;;;5050973;28;20052;-70
2021/05/14 05:41:12;;;;;;;3.53;1.20;;;9.60;81.50;;;;;;5042704;28;20047;-70
2021/05/14 05:43:37;;;;;;;1.10;1.00;;;9.80;81.70;;;;;;5049861;28;20025;-70
2021/05/14 05:46:03;;;;;;;2.13;1.02;;;9.90;81.40;;;;;;5049636;28;20025;-69
2021/05/14 05:48:28;;;;;;;3.05;2.17;;;9.90;81.10;;;;;;5051113;28;20086;-70
2021/05/14 05:50:54;;;;;;;0.98;0.90;;;10.00;81.20;;;;;;5051431;28;20033;-71
2021/05/14 05:53:20;;;;;;;1.27;1.05;;;10.10;81.00;;;;;;5046904;28;20025;-70
2021/05/14 05:55:47;;;;;;;0.77;0.77;;;10.20;81.00;;;;;;5053001;28;20032;-70
2021/05/14 05:58:14;;;;;;;3.45;0.95;;;10.30;81.00;;;;;;5050075;28;20025;-69
2021/05/14 06:00:40;;;;;;;1.17;0.90;;;10.30;80.80;;;;;;5049580;28;20028;-69
2021/05/14 06:03:09;;;;;;;2.42;1.10;;;10.40;80.60;;;;;;5051401;28;20420;-70
2021/05/14 06:05:35;;;;;;;2.70;1.10;;;10.50;80.80;;;;;;5049161;28;20033;-70
2021/05/14 06:08:01;;;;;;;1.20;1.10;;;10.60;80.70;;;;;;5050022;28;20404;-70
2021/05/14 06:10:26;;;;;;;1.60;1.33;;;10.60;80.30;;;;;;5049905;28;20040;-69
2021/05/14 06:12:52;;;;;;;2.50;1.10;;;10.70;80.30;;;;;;5031461;28;20029;-69
2021/05/14 06:15:18;;;;;;;1.58;1.17;;;10.70;80.00;;;;;;5047653;28;20035;-70
2021/05/14 06:17:44;;;;;;;1.42;0.73;;;10.90;80.10;;;;;;5050397;28;20036;-70
2021/05/14 06:20:12;;;;;;;0.73;0.73;;;10.90;79.80;;;;;;5046674;28;20017;-70
2021/05/14 06:22:39;;;;;;;2.85;0.90;;;11.00;79.70;;;;;;5032306;28;20451;-69
2021/05/14 06:25:05;;;;;;;0.93;0.82;;;11.20;79.40;;;;;;5023403;28;20029;-69
2021/05/14 06:27:32;;;;;;;5.65;1.10;;;11.40;79.20;;;;;;5045619;28;20093;-70
2021/05/14 06:29:58;;;;;;;1.23;0.90;;;11.60;79.20;;;;;;5049543;28;20037;-70
2021/05/14 06:32:24;;;;;;;1.77;0.63;;;11.80;79.00;;;;;;5032215;28;20082;-70
2021/05/14 06:34:50;;;;;;;0.60;0.60;;;12.10;78.60;;;;;;5029926;28;20036;-69
2021/05/14 06:37:16;;;;;;;0.90;0.90;;;12.30;78.00;;;;;;5049391;28;20021;-70
2021/05/14 06:39:42;;;;;;;0.80;0.80;;;12.50;77.20;;;;;;5048577;28;20048;-70
2021/05/14 06:42:08;;;;;;;0.73;0.70;;;12.70;77.10;;;;;;5041387;28;20017;-70
2021/05/14 06:44:33;;;;;;;0.63;0.50;;;13.00;77.30;;;;;;5048615;28;20032;-70
2021/05/14 06:46:59;;;;;;;0.85;0.50;;;13.20;76.20;;;;;;5041812;28;20028;-69
2021/05/14 06:49:25;;;;;;;0.50;0.50;;;13.40;76.00;;;;;;5031596;28;20131;-70
2021/05/14 06:51:50;;;;;;;2.60;1.05;;;13.70;75.90;;;;;;5032122;28;20039;-73
2021/05/14 06:54:16;;;;;;;1.05;0.50;;;14.00;75.70;;;;;;5029947;28;20029;-71
2021/05/14 06:56:42;;;;;;;3.03;0.43;;;14.30;75.00;;;;;;5029944;28;20040;-72
2021/05/14 06:59:08;;;;;;;0.38;0.38;;;14.50;73.70;;;;;;5049407;28;20032;-71
2021/05/14 07:01:33;;;;;;;0.73;0.52;;;14.50;73.20;;;;;;5037175;28;20028;-71
2021/05/14 07:03:59;;;;;;;0.90;0.50;;;14.60;72.50;;;;;;5031359;28;20443;-70
2021/05/14 07:06:25;;;;;;;5.20;0.47;;;14.80;72.20;;;;;;5049850;28;20742;-71
2021/05/14 07:08:50;;;;;;;0.47;0.40;;;15.10;71.30;;;;;;5031456;28;20029;-72
2021/05/14 07:11:17;;;;;;;1.30;0.40;;;15.00;71.40;;;;;;5049825;28;20031;-71
2021/05/14 07:13:42;;;;;;;1.58;0.50;;;15.40;70.50;;;;;;5047490;28;20033;-71
2021/05/14 07:16:08;;;;;;;0.80;0.50;;;15.60;70.50;;;;;;5030142;28;20447;-71
2021/05/14 07:18:34;;;;;;;1.45;0.70;;;15.70;70.30;;;;;;5049463;28;20373;-71
2021/05/14 07:20:59;;;;;;;0.28;0.28;;;15.70;69.70;;;;;;5028723;28;20325;-71
2021/05/14 07:23:25;;;;;;;0.88;0.30;;;15.60;69.60;;;;;;5049130;28;20075;-70
2021/05/14 07:25:51;;;;;;;1.48;0.20;;;15.70;68.80;;;;;;5047459;28;20124;-71
2021/05/14 07:28:18;;;;;;;0.52;0.35;;;15.70;68.80;;;;;;5030619;28;20021;-71
2021/05/14 07:30:43;;;;;;;0.30;0.30;;;16.00;68.60;;;;;;5048989;28;20033;-72
2021/05/14 07:33:09;;;;;;;0.30;0.30;;;15.80;68.30;;;;;;5049942;28;20138;-70
2021/05/14 07:35:35;;;;;;;0.65;0.35;;;15.70;68.10;;;;;;5048818;28;20372;-71
2021/05/14 07:38:00;;;;;;;1.05;0.60;;;15.70;68.20;;;;;;5049048;28;20544;-70
2021/05/14 07:40:26;;;;;;;1.83;0.40;;;15.50;68.40;;;;;;5029487;28;20031;-71
2021/05/14 07:42:52;;;;;;;0.30;0.30;;;15.40;68.70;;;;;;5047608;28;20662;-70
2021/05/14 07:45:18;;;;;;;2.20;0.30;;;15.60;68.30;;;;;;5048471;28;20079;-70
2021/05/14 07:47:43;;;;;;;0.40;0.40;;;16.30;66.90;;;;;;5049208;28;20037;-72
2021/05/14 07:50:09;;;;;;;1.23;0.30;;;17.20;65.40;;;;;;5049732;28;20025;-69
2021/05/14 07:52:35;;;;;;;0.43;0.35;;;17.70;64.50;;;;;;5024286;28;20438;-70
2021/05/14 07:55:01;;;;;;;0.82;0.40;;;17.70;63.90;;;;;;5045042;28;20033;-70
2021/05/14 07:57:27;;;;;;;1.20;0.32;;;17.70;64.20;;;;;;5049283;28;20049;-70
2021/05/14 07:59:52;;;;;;;0.43;0.20;;;18.60;62.60;;;;;;5049046;28;20050;-71
2021/05/14 08:02:18;;;;;;;0.63;0.30;;;19.50;61.30;;;;;;5031769;28;20021;-70
2021/05/14 08:04:44;;;;;;;1.08;0.25;;;20.20;60.40;;;;;;5048748;28;20060;-70
2021/05/14 08:07:09;;;;;;;1.45;0.20;;;19.60;61.30;;;;;;5032248;28;20028;-70
2021/05/14 08:09:35;;;;;;;0.30;0.30;;;19.50;61.70;;;;;;5049433;28;20083;-70
2021/05/14 08:12:05;;;;;;;0.17;0.17;;;19.00;61.10;;;;;;5048254;28;20037;-71
2021/05/14 08:14:31;;;;;;;0.20;0.20;;;18.30;61.80;;;;;;5048647;28;20396;-70
2021/05/14 08:16:57;;;;;;;2.15;0.30;;;17.70;62.50;;;;;;5030860;28;20092;-70
2021/05/14 08:19:23;;;;;;;1.33;0.70;;;17.40;62.80;;;;;;5030383;28;20032;-69
2021/05/14 08:21:49;;;;;;;0.65;0.50;;;18.10;61.00;;;;;;5049118;28;20498;-70
2021/05/14 08:24:15;;;;;;;1.35;0.40;;;18.80;60.40;;;;;;5021947;28;20067;-69
2021/05/14 08:26:41;;;;;;;1.00;0.20;;;19.70;58.90;;;;;;5059896;28;20100;-71
2021/05/14 08:29:08;;;;;;;0.20;0.20;;;19.00;58.70;;;;;;5049163;28;20029;-73
2021/05/14 08:31:37;;;;;;;1.38;0.22;;;18.30;59.90;;;;;;5026625;28;20166;-70
2021/05/14 08:34:03;;;;;;;0.30;0.30;;;17.80;60.50;;;;;;5053164;28;20016;-70
2021/05/14 08:36:29;;;;;;;0.30;0.30;;;18.10;60.40;;;;;;5052763;28;20800;-70
2021/05/14 08:38:54;;;;;;;0.30;0.30;;;19.70;57.70;;;;;;5052397;28;20525;-70
2021/05/14 08:41:20;;;;;;;0.20;0.20;;;21.20;55.40;;;;;;5051979;28;20025;-71
2021/05/14 08:43:47;;;;;;;0.32;0.20;;;22.40;52.80;;;;;;5051683;28;20416;-70
2021/05/14 08:46:14;;;;;;;0.80;0.20;;;22.10;53.00;;;;;;5032825;28;20382;-69
2021/05/14 08:48:41;;;;;;;2.95;0.30;;;21.10;54.40;;;;;;5034485;28;20036;-71
2021/05/14 08:51:09;;;;;;;0.30;0.30;;;20.20;55.60;;;;;;5052701;28;20087;-71
2021/05/14 08:53:35;;;;;;;0.20;0.20;;;19.30;55.80;;;;;;5051338;28;20214;-71
2021/05/14 08:56:01;;;;;;;1.25;0.30;;;18.50;57.00;;;;;;5050866;28;20029;-72
2021/05/14 08:58:27;;;;;;;0.40;0.40;;;18.70;56.70;;;;;;5052061;28;20025;-73
2021/05/14 09:00:53;;;;;;;0.10;0.10;;;20.00;55.20;;;;;;5051738;28;20477;-70
2021/05/14 09:03:20;;;;;;;1.35;0.20;;;20.50;53.50;;;;;;5038949;28;20022;-72
2021/05/14 09:05:47;;;;;;;0.47;0.20;;;19.90;54.90;;;;;;5048665;28;20381;-72
2021/05/14 09:08:24;;;;;;;0.10;0.10;;;20.20;55.10;;;;;;5029044;28;20025;-69
2021/05/14 09:10:50;;;;;;;0.63;0.17;;;20.00;55.60;;;;;;5032245;28;20033;-69
2021/05/14 09:13:16;;;;;;;0.40;0.10;;;19.60;55.70;;;;;;5032240;28;20029;-69
2021/05/14 09:15:42;;;;;;;1.83;0.28;;;18.90;56.40;;;;;;5032253;28;20021;-69
2021/05/14 09:18:11;;;;;;;0.35;0.30;;;18.30;57.30;;;;;;5033220;28;20078;-69
2021/05/14 09:20:37;;;;;;;1.38;0.40;;;17.90;57.90;;;;;;5031187;28;20040;-70
2021/05/14 09:23:32;;;;;;;0.57;0.40;;;18.20;58.00;;;;;;5050062;28;20716;-69
2021/05/14 09:26:05;;;;;;;0.10;0.10;;;19.40;56.30;;;;;;5027321;28;20032;-69
2021/05/14 09:28:44;;;;;;;0.10;0.10;;;19.10;57.00;;;;;;5032821;28;20043;-71
2021/05/14 09:31:18;;;;;;;1.80;0.22;;;19.20;56.60;;;;;;5126006;22;20102;-74
2021/05/14 09:34:00;;;;;;;0.55;0.52;;;18.70;56.80;;;;;;5064873;28;20031;-76
2021/05/14 09:36:31;;;;;;;1.42;0.28;;;18.20;56.50;;;;;;5059195;28;20022;-75
2021/05/14 09:38:59;;;;;;;1.70;1.27;;;17.70;57.80;;;;;;5067166;28;20033;-75
2021/05/14 09:41:36;;;;;;;1.35;0.30;;;17.50;58.90;;;;;;5050848;28;20037;-74
2021/05/14 09:44:16;;;;;;;0.45;0.17;;;17.30;58.50;;;;;;5048617;28;20071;-74
2021/05/14 09:46:52;;;;;;;0.75;0.50;;;17.00;58.20;;;;;;5040169;28;20036;-75
2021/05/14 09:49:20;;;;;;;2.00;0.77;;;16.80;59.10;;;;;;5052903;28;20024;-75
2021/05/14 09:51:56;;;;;;;2.28;0.40;;;16.90;59.70;;;;;;5062667;28;20028;-76
2021/05/14 09:54:25;;;;;;;1.17;0.30;;;17.00;60.00;;;;;;5053261;28;20025;-75
2021/05/14 09:57:15;;;;;;;0.43;0.20;;;16.90;59.80;;;;;;5051596;28;20031;-74
2021/05/14 09:59:41;;;;;;;0.55;0.20;;;16.90;59.10;;;;;;5052169;28;20324;-76
2021/05/14 10:02:24;;;;;;;0.20;0.20;;;16.70;59.40;;;;;;5066073;28;20024;-74
2021/05/14 10:04:51;;;;;;;0.20;0.10;;;16.60;59.10;;;;;;5032093;28;20025;-76
2021/05/14 10:07:17;;;;;;;1.38;0.30;;;16.40;59.60;;;;;;5069721;28;20028;-76
2021/05/14 10:09:46;;;;;;;0.30;0.30;;;16.20;59.00;;;;;;5055555;28;20104;-74
2021/05/14 10:12:13;;;;;;;0.68;0.30;;;16.00;59.20;;;;;;5051705;28;20377;-75
2021/05/14 10:14:39;;;;;;;0.40;0.40;;;15.80;60.00;;;;;;5033804;28;20112;-75
2021/05/14 10:17:06;;;;;;;0.40;0.35;;;15.80;59.80;;;;;;5055675;28;20401;-75
2021/05/14 10:19:34;;;;;;;1.23;0.28;;;15.70;60.20;;;;;;5036638;28;20028;-75
2021/05/14 10:22:00;;;;;;;2.47;0.65;;;15.70;60.10;;;;;;5052166;28;20055;-75
2021/05/14 10:24:42;;;;;;;0.82;0.30;;;15.70;60.80;;;;;;5050557;28;20059;-74
2021/05/14 10:27:29;;;;;;;0.30;0.30;;;15.80;60.90;;;;;;5070875;28;20016;-74
2021/05/14 10:29:56;;;;;;;0.32;0.32;;;15.90;60.80;;;;;;5069268;28;20058;-74
2021/05/14 10:32:44;;;;;;;5.80;0.70;;;16.00;61.10;;;;;;5050070;28;20151;-74
2021/05/14 10:35:26;;;;;;;0.45;0.43;;;16.00;60.50;;;;;;5061210;28;20477;-72
2021/05/14 10:38:02;;;;;;;0.82;0.28;;;16.00;60.90;;;;;;5056699;28;20071;-72
2021/05/14 10:43:07;;;;;;;0.20;0.20;;;16.00;60.50;;;;;;5069350;28;20029;-72
2021/05/14 10:45:33;;;;;;;0.20;0.20;;;15.90;60.90;;;;;;5050948;28;20139;-74
2021/05/14 10:47:59;;;;;;;0.30;0.30;;;15.90;60.80;;;;;;5068186;28;20477;-74
2021/05/14 10:50:36;;;;;;;0.82;0.20;;;15.90;60.50;;;;;;5057545;28;20036;-73
2021/05/14 10:53:19;;;;;;;3.83;2.58;;;15.80;60.40;;;;;;5059205;28;20032;-73
2021/05/14 10:55:47;;;;;;;2.15;0.38;;;15.80;60.80;;;;;;5070605;28;20106;-73
2021/05/14 10:58:37;;;;;;;0.55;0.55;;;15.80;61.10;;;;;;5061479;28;20028;-73
2021/05/14 11:01:04;;;;;;;1.15;0.40;;;15.80;60.60;;;;;;5044632;28;20532;-73
2021/05/14 11:03:34;;;;;;;0.20;0.20;;;16.00;60.80;;;;;;5067397;28;20025;-74
2021/05/14 11:06:10;;;;;;;0.20;0.20;;;16.30;60.70;;;;;;5068563;28;20134;-74
2021/05/14 11:08:36;;;;;;;1.85;0.20;;;16.60;60.30;;;;;;5067924;28;20107;-74
2021/05/14 11:11:04;;;;;;;0.43;0.20;;;16.80;60.40;;;;;;5045393;28;20124;-73
2021/05/14 11:13:45;;;;;;;2.35;1.73;;;17.10;60.20;;;;;;5051540;28;20036;-74
2021/05/14 11:16:29;;;;;;;0.55;0.55;;;17.30;59.40;;;;;;5057766;28;20025;-73
2021/05/14 11:18:55;;;;;;;0.25;0.25;;;17.40;58.70;;;;;;5056241;28;20032;-74
2021/05/14 11:21:21;;;;;;;0.43;0.30;;;17.50;58.70;;;;;;5049684;28;20048;-72
2021/05/14 11:23:47;;;;;;;1.30;0.30;;;17.50;58.80;;;;;;5068794;28;20160;-73
2021/05/14 11:26:19;;;;;;;0.55;0.25;;;17.40;58.30;;;;;;5069662;28;20097;-74
2021/05/14 11:28:45;;;;;;;0.30;0.20;;;17.40;57.90;;;;;;5064322;28;20029;-74
2021/05/14 11:31:22;;;;;;;1.02;0.40;;;17.40;58.10;;;;;;5051431;28;20054;-74
2021/05/14 11:33:50;;;;;;;0.70;0.30;;;17.30;57.90;;;;;;5056286;28;20025;-72
2021/05/14 11:36:16;;;;;;;0.35;0.20;;;17.30;58.10;;;;;;5045026;28;20032;-74
2021/05/14 11:38:50;;;;;;;1.92;0.40;;;17.30;58.00;;;;;;5039657;28;20037;-72
2021/05/14 11:41:17;;;;;;;0.40;0.20;;;17.30;57.90;;;;;;5052604;28;20052;-74
2021/05/14 11:43:53;;;;;;;4.75;2.65;;;17.40;57.90;;;;;;5060416;28;20095;-74
2021/05/14 11:46:22;;;;;;;0.80;0.80;;;17.30;57.00;;;;;;5050847;28;20075;-74
2021/05/14 11:48:48;;;;;;;0.30;0.20;;;17.30;57.40;;;;;;5065113;28;20769;-74
2021/05/14 11:51:14;;;;;;;1.00;0.28;;;17.20;57.50;;;;;;5062860;28;20104;-74
2021/05/14 11:53:40;;;;;;;1.33;0.28;;;17.20;57.60;;;;;;5047553;28;20034;-72
2021/05/14 11:56:07;;;;;;;1.35;0.40;;;17.30;57.70;;;;;;5067957;28;20070;-74
2021/05/14 11:58:33;;;;;;;0.28;0.28;;;17.30;57.50;;;;;;5039223;28;20078;-74
2021/05/14 12:00:58;;;;;;;0.20;0.20;;;17.40;57.30;;;;;;5054945;28;20025;-72
2021/05/14 12:03:25;;;;;;;2.08;0.30;;;17.40;57.90;;;;;;5057601;28;20122;-74
2021/05/14 12:05:51;;;;;;;0.45;0.22;;;17.50;57.90;;;;;;5035492;28;20021;-73
2021/05/14 12:08:19;;;;;;;0.88;0.20;;;17.80;57.60;;;;;;5051281;28;20051;-74
2021/05/14 12:10:52;;;;;;;1.92;0.30;;;18.10;57.50;;;;;;5069329;28;20108;-73
2021/05/14 12:13:20;;;;;;;0.20;0.20;;;18.30;56.90;;;;;;5054878;28;20029;-73
2021/05/14 12:16:05;;;;;;;0.55;0.20;;;18.50;56.70;;;;;;5066613;28;20048;-73
2021/05/14 12:18:43;;;;;;;0.60;0.30;;;18.70;56.10;;;;;;5073489;28;20099;-74
2021/05/14 12:21:14;;;;;;;0.10;0.10;;;18.80;55.20;;;;;;5066361;28;20048;-73
2021/05/14 12:23:40;;;;;;;0.90;0.20;;;18.60;55.10;;;;;;5052769;28;20024;-73
2021/05/14 12:26:07;;;;;;;0.20;0.20;;;18.70;55.40;;;;;;5072386;28;20020;-73
2021/05/14 12:28:46;;;;;;;2.30;0.20;;;18.80;55.70;;;;;;5065743;28;20114;-74
2021/05/14 12:31:11;;;;;;;0.80;0.30;;;19.10;54.90;;;;;;5062909;28;20063;-73
2021/05/14 12:34:10;;;;;;;0.73;0.15;;;19.30;55.10;;;;;;5060983;28;20082;-74
2021/05/14 12:36:38;;;;;;;1.35;0.20;;;19.40;53.50;;;;;;5072960;28;20020;-74
2021/05/14 12:39:09;;;;;;;0.40;0.13;;;19.40;54.30;;;;;;5052262;28;20043;-73
2021/05/14 12:41:35;;;;;;;0.22;0.20;;;19.40;53.70;;;;;;5070284;28;20534;-74
2021/05/14 12:44:25;;;;;;;1.38;0.30;;;19.50;53.70;;;;;;5072726;28;20031;-75
2021/05/14 12:46:57;;;;;;;0.15;0.10;;;19.50;53.50;;;;;;5052020;28;20112;-74
2021/05/14 12:49:23;;;;;;;1.20;0.17;;;19.40;53.10;;;;;;5053056;28;20020;-74
2021/05/14 12:52:03;;;;;;;0.35;0.30;;;19.30;53.60;;;;;;5055381;28;20035;-73
2021/05/14 12:54:29;;;;;;;0.20;0.10;;;19.20;53.10;;;;;;5072079;28;20031;-74
2021/05/14 12:56:55;;;;;;;0.40;0.20;;;19.10;53.40;;;;;;5071932;28;20078;-72
2021/05/14 12:59:20;;;;;;;0.52;0.30;;;18.80;53.10;;;;;;5052656;28;20436;-74
2021/05/14 13:01:48;;;;;;;0.13;0.13;;;18.60;53.60;;;;;;5055201;28;20047;-73